Loran, Illinois
Current Conditions -  °F | °C
As of 12:15 PM on Saturday 25 Oct 2014 (Local Time) from KFEP Reporting Station
Clear Clear  
Wind Chill: 67°   Ceiling: Unl
Heat Index: 67°   Visibility: 10mi
Dew Point: 39°   Wind: 13mph
Humidity: 36%   Direction: 300°WNW
Pressure: 30.01"   Gusts: 17mph
Location:  42.2523°N, 89.8438°W
Report Text: KFEP 251715Z AUTO 30011G15KT 10SM CLR 19/04 A3001 RMK AO2 T01920039
Loading
Personal Weather Stations






























Interactive Weather Map
Tropical Storm Tracking
New forecast layout! Learn more

10-Day Weather Forecast

Advertisements
Track Severe Weather on mobile